Accueil
METAR-TAF:

METAR-TAF

Aéroports :

Waterville Robert LaFleur Airport

Waterville, Maine, États-Unis

latitude: 44-32N, longitude: 069-41W, altitude: 101 m

Observation

Le bulletin a été fait il y a 17 minutes, à 23:56 UTC
Vent 5 kt de ouest
Température 16°C
Humidité 45%
Pression 1008 hPa
Visibilité: 16.1 km
Quelques nuages à une hauteur de 8500 ft
Nuages fragmentés à une hauteur de 11000 ft

METAR: KWVL 022356Z AUTO 27005KT 10SM FEW085 BKN110 16/04 A2976 RMK AO2 SLP105 T01610044 10200 20161 55001

Heure: 20:13 (00:13 UTC)


TAF: absent

Observations et prévisions météorologiques de plus de 4000 aéroports (messages METAR et TAF).

Les stations disponibles sont représentées par des disques jaunes et rouges sur la carte.

Passer la souris dessus pour voir le nom de la station.

Cliquer dessus pour voir les observations et prévisions météorologiques.

Pour changer de carte: cliquez sur les boutons verts avec une croix noire pour zoomer, sur le bouton vert avec un tiret pour effectuer un zoom arrière, ou sur les flèches vertes pour les cartes adjacentes.


METAR-TAF: